createdAt,value
2023-05-21T00:01:52.967Z,10.47
2023-05-21T00:04:21.194Z,11.13
2023-05-21T00:06:49.379Z,9.97
2023-05-21T00:09:17.614Z,10.40
2023-05-21T00:11:45.803Z,11.07
2023-05-21T00:14:14.010Z,11.13
2023-05-21T00:16:44.941Z,11.77
2023-05-21T00:19:13.300Z,10.53
2023-05-21T00:21:41.473Z,11.13
2023-05-21T00:24:09.694Z,10.70
2023-05-21T00:26:37.892Z,10.77
2023-05-21T00:29:06.330Z,12.43
2023-05-21T00:31:34.694Z,11.83
2023-05-21T00:34:04.236Z,11.90
2023-05-21T00:36:34.516Z,11.60
2023-05-21T00:39:04.515Z,12.43
2023-05-21T00:41:32.726Z,11.67
2023-05-21T00:44:00.916Z,12.33
2023-05-21T00:46:29.465Z,12.83
2023-05-21T00:48:58.824Z,11.00
2023-05-21T00:51:30.276Z,10.97
2023-05-21T00:53:58.733Z,10.60
2023-05-21T00:56:27.787Z,10.80
2023-05-21T00:58:57.106Z,11.33
2023-05-21T01:01:25.871Z,10.30
2023-05-21T01:03:54.377Z,9.87
2023-05-21T01:06:22.577Z,10.93
2023-05-21T01:08:52.230Z,10.57
2023-05-21T01:11:21.538Z,10.40
2023-05-21T01:13:49.956Z,10.03
2023-05-21T01:16:18.239Z,11.07
2023-05-21T01:18:46.650Z,11.60
2023-05-21T01:21:17.355Z,10.43
2023-05-21T01:23:47.143Z,11.13
2023-05-21T01:26:15.805Z,11.27
2023-05-21T01:28:44.151Z,10.97
2023-05-21T01:31:18.222Z,10.63
2023-05-21T01:33:49.237Z,11.40
2023-05-21T01:36:21.707Z,11.80
2023-05-21T01:38:54.671Z,10.70
2023-05-21T01:41:23.256Z,11.23
2023-05-21T01:43:52.311Z,11.30
2023-05-21T01:46:23.078Z,10.73
2023-05-21T01:48:52.020Z,11.50
2023-05-21T01:51:20.976Z,10.73
2023-05-21T01:53:50.559Z,10.90
2023-05-21T01:56:18.765Z,11.73
2023-05-21T01:58:47.206Z,11.80
2023-05-21T02:01:15.407Z,11.83
2023-05-21T02:03:43.710Z,11.50
2023-05-21T02:06:11.945Z,11.83
2023-05-21T02:08:40.325Z,11.77
2023-05-21T02:11:09.930Z,12.40
2023-05-21T02:13:42.015Z,12.83
2023-05-21T02:16:11.808Z,12.70
2023-05-21T02:18:42.104Z,13.43
2023-05-21T02:21:10.544Z,12.60
2023-05-21T02:23:39.167Z,14.73
2023-05-21T02:26:07.394Z,13.67
2023-05-21T02:28:37.118Z,13.90
2023-05-21T02:31:05.389Z,12.87
2023-05-21T02:33:33.611Z,14.97
2023-05-21T02:36:01.880Z,13.83
2023-05-21T02:38:32.575Z,13.90
2023-05-21T02:41:00.824Z,13.63
2023-05-21T02:43:29.022Z,14.77
2023-05-21T02:45:58.599Z,14.80
2023-05-21T02:48:26.821Z,14.57
2023-05-21T02:50:55.075Z,14.50
2023-05-21T02:53:23.258Z,15.47
2023-05-21T02:55:51.612Z,15.83
2023-05-21T02:58:21.451Z,15.60
2023-05-21T03:00:49.703Z,15.20
2023-05-21T03:03:19.407Z,15.03
2023-05-21T03:05:48.298Z,14.57
2023-05-21T03:08:16.923Z,15.90
2023-05-21T03:10:45.188Z,15.57
2023-05-21T03:13:13.447Z,15.50
2023-05-21T03:15:41.701Z,15.13
2023-05-21T03:18:09.951Z,15.97
2023-05-21T03:20:43.588Z,15.40
2023-05-21T03:23:16.214Z,16.47
2023-05-21T03:25:45.939Z,15.23
2023-05-21T03:28:14.235Z,16.13
2023-05-21T03:30:46.164Z,16.27
2023-05-21T03:33:15.545Z,16.10
2023-05-21T03:35:45.124Z,15.43
2023-05-21T03:38:13.325Z,15.53
2023-05-21T03:40:41.548Z,17.40
2023-05-21T03:43:09.765Z,16.23
2023-05-21T03:45:38.339Z,16.43
2023-05-21T03:48:07.317Z,16.47
2023-05-21T03:50:35.645Z,16.17
2023-05-21T03:53:05.252Z,14.90
2023-05-21T03:55:33.553Z,16.10
2023-05-21T03:58:01.884Z,15.60
2023-05-21T04:00:30.088Z,14.97
2023-05-21T04:02:58.461Z,15.80
2023-05-21T04:05:26.777Z,16.03
2023-05-21T04:07:55.069Z,15.17
2023-05-21T04:10:24.618Z,15.87
2023-05-21T04:12:53.314Z,15.40
2023-05-21T04:15:21.721Z,15.17
2023-05-21T04:17:50.302Z,15.87
2023-05-21T04:20:18.682Z,15.80
2023-05-21T04:22:46.888Z,15.43
2023-05-21T04:25:15.308Z,16.53
2023-05-21T04:27:47.759Z,15.90
2023-05-21T04:30:16.050Z,16.27
2023-05-21T04:32:45.761Z,16.47
2023-05-21T04:35:15.178Z,17.60
2023-05-21T04:37:45.953Z,17.53
2023-05-21T04:40:18.120Z,17.13
2023-05-21T04:42:48.323Z,16.57
2023-05-21T04:45:17.616Z,16.83
2023-05-21T04:47:46.104Z,15.73
2023-05-21T04:50:14.592Z,16.10
2023-05-21T04:52:42.818Z,16.67
2023-05-21T04:55:11.210Z,15.93
2023-05-21T04:57:39.436Z,15.83
2023-05-21T05:00:10.344Z,16.07
2023-05-21T05:02:38.610Z,15.60
2023-05-21T05:05:07.298Z,16.23
2023-05-21T05:07:35.518Z,15.10
2023-05-21T05:10:03.766Z,15.03
2023-05-21T05:12:31.988Z,15.17
2023-05-21T05:15:00.217Z,15.13
2023-05-21T05:17:29.836Z,14.13
2023-05-21T05:19:58.150Z,14.53
2023-05-21T05:22:26.783Z,14.57
2023-05-21T05:24:54.973Z,14.10
2023-05-21T05:27:23.154Z,12.87
2023-05-21T05:29:51.353Z,13.37
2023-05-21T05:32:19.597Z,13.40
2023-05-21T05:34:49.178Z,13.43
2023-05-21T05:37:17.382Z,12.90
2023-05-21T05:39:45.605Z,13.40
2023-05-21T05:42:13.796Z,11.93
2023-05-21T05:44:42.006Z,12.60
2023-05-21T05:47:10.895Z,13.60
2023-05-21T05:49:39.291Z,11.97
2023-05-21T05:52:09.125Z,12.07
2023-05-21T05:54:37.400Z,12.10
2023-05-21T05:57:05.912Z,11.67
2023-05-21T05:59:34.722Z,11.33
2023-05-21T06:02:02.949Z,12.10
2023-05-21T06:04:31.183Z,11.07
2023-05-21T06:06:59.865Z,10.17
2023-05-21T06:09:29.449Z,10.53
2023-05-21T06:11:57.848Z,9.80
2023-05-21T06:14:26.044Z,10.33
2023-05-21T06:16:54.243Z,9.40
2023-05-21T06:19:22.549Z,8.63
2023-05-21T06:21:51.208Z,9.07
2023-05-21T06:24:19.411Z,8.73
2023-05-21T06:26:49.001Z,8.27
2023-05-21T06:29:17.574Z,8.43
2023-05-21T06:31:45.843Z,8.00
2023-05-21T06:34:14.081Z,8.47
2023-05-21T06:36:42.320Z,9.67
2023-05-21T06:39:10.526Z,7.90
2023-05-21T06:41:38.719Z,9.43
2023-05-21T06:44:08.259Z,9.57
2023-05-21T06:46:36.582Z,8.60
2023-05-21T06:49:06.986Z,8.40
2023-05-21T06:51:35.294Z,8.93
2023-05-21T06:54:03.480Z,8.83
2023-05-21T06:56:31.763Z,9.23
2023-05-21T06:59:00.311Z,8.70
2023-05-21T07:01:30.621Z,9.27
2023-05-21T07:03:58.932Z,9.50
2023-05-21T07:06:27.168Z,9.13
2023-05-21T07:08:55.507Z,8.27
2023-05-21T07:11:28.524Z,8.63
2023-05-21T07:13:56.776Z,7.87
2023-05-21T07:16:25.057Z,8.37
2023-05-21T07:18:54.648Z,8.63
2023-05-21T07:21:22.971Z,8.83
2023-05-21T07:23:51.180Z,8.63
2023-05-21T07:26:19.494Z,8.50
2023-05-21T07:28:47.776Z,8.40
2023-05-21T07:31:16.065Z,9.77
2023-05-21T07:33:44.286Z,9.70
2023-05-21T07:36:13.815Z,9.03
2023-05-21T07:38:42.012Z,9.97
2023-05-21T07:41:10.210Z,9.30
2023-05-21T07:43:38.426Z,9.30
2023-05-21T07:46:06.724Z,10.43
2023-05-21T07:48:35.708Z,10.43
2023-05-21T07:51:04.898Z,9.67
2023-05-21T07:53:34.474Z,8.80
2023-05-21T07:56:02.739Z,9.50
2023-05-21T07:58:31.091Z,9.33
2023-05-21T08:00:59.332Z,8.87
2023-05-21T08:03:30.826Z,8.80
2023-05-21T08:05:59.301Z,8.93
2023-05-21T08:08:27.615Z,8.83
2023-05-21T08:10:57.615Z,9.37
2023-05-21T08:13:25.892Z,9.37
2023-05-21T08:15:54.311Z,9.23
2023-05-21T08:18:23.659Z,9.20
2023-05-21T08:20:52.001Z,10.77
2023-05-21T08:23:20.296Z,8.80
2023-05-21T08:25:48.510Z,8.93
2023-05-21T08:28:18.091Z,9.03
2023-05-21T08:30:46.376Z,9.33
2023-05-21T08:33:14.966Z,8.97
2023-05-21T08:35:43.217Z,9.83
2023-05-21T08:38:11.420Z,9.27
2023-05-21T08:40:41.376Z,9.53
2023-05-21T08:43:13.712Z,10.23
2023-05-21T08:45:44.023Z,8.87
2023-05-21T08:48:13.149Z,9.87
2023-05-21T08:50:42.026Z,9.27
2023-05-21T08:53:19.924Z,9.33
2023-05-21T08:55:57.076Z,9.83
2023-05-21T08:58:25.384Z,9.53
2023-05-21T09:00:55.990Z,9.43
2023-05-21T09:03:24.909Z,9.53
2023-05-21T09:05:53.432Z,9.23
2023-05-21T09:08:23.591Z,9.10
2023-05-21T09:10:52.548Z,9.77
2023-05-21T09:13:21.316Z,9.17
2023-05-21T09:15:49.796Z,9.70
2023-05-21T09:18:19.426Z,9.40
2023-05-21T09:20:47.636Z,9.77
2023-05-21T09:23:18.885Z,10.53
2023-05-21T09:25:47.582Z,9.43
2023-05-21T09:28:16.651Z,10.87
2023-05-21T09:30:48.452Z,9.50
2023-05-21T09:33:27.475Z,9.27
2023-05-21T09:35:55.823Z,10.33
2023-05-21T09:38:24.587Z,10.27
2023-05-21T09:40:54.073Z,11.03
2023-05-21T09:43:23.334Z,10.93
2023-05-21T09:45:55.731Z,9.43
2023-05-21T09:48:39.478Z,10.53
2023-05-21T09:51:12.323Z,10.97
2023-05-21T09:53:50.562Z,9.70
2023-05-21T09:56:19.468Z,10.10
2023-05-21T09:58:48.046Z,9.90
2023-05-21T10:01:16.740Z,10.27
2023-05-21T10:03:50.577Z,9.43
2023-05-21T10:06:19.860Z,10.77
2023-05-21T10:08:50.112Z,11.53
2023-05-21T10:11:18.481Z,10.90
2023-05-21T10:13:50.057Z,10.17
2023-05-21T10:16:19.444Z,10.73
2023-05-21T10:18:49.693Z,10.57
2023-05-21T10:21:18.600Z,11.37
2023-05-21T10:23:47.819Z,10.13
2023-05-21T10:26:16.184Z,11.77
2023-05-21T10:28:45.016Z,11.60
2023-05-21T10:31:13.549Z,11.80
2023-05-21T10:33:43.689Z,12.00
2023-05-21T10:36:13.300Z,10.53
2023-05-21T10:38:42.454Z,9.00
2023-05-21T10:41:11.415Z,11.30
2023-05-21T10:43:43.583Z,12.77
2023-05-21T10:46:24.498Z,13.17
2023-05-21T10:48:59.625Z,12.20
2023-05-21T10:51:30.556Z,11.77
2023-05-21T10:54:17.554Z,14.00
2023-05-21T10:56:47.694Z,12.10
2023-05-21T10:59:22.916Z,13.50
2023-05-21T11:01:52.848Z,14.40
2023-05-21T11:04:23.672Z,15.47
2023-05-21T11:06:53.324Z,13.50
2023-05-21T11:09:21.630Z,14.83
2023-05-21T11:11:52.227Z,14.53
2023-05-21T11:14:31.806Z,15.13
2023-05-21T11:17:00.308Z,15.63
2023-05-21T11:19:38.583Z,15.13
2023-05-21T11:22:10.150Z,15.83
2023-05-21T11:24:42.359Z,15.33
2023-05-21T11:27:12.481Z,15.40
2023-05-21T11:29:41.800Z,13.40
2023-05-21T11:32:10.996Z,15.97
2023-05-21T11:34:40.422Z,15.87
2023-05-21T11:37:27.672Z,15.27
2023-05-21T11:39:56.486Z,15.33
2023-05-21T11:42:34.703Z,16.10
2023-05-21T11:45:04.286Z,16.83
2023-05-21T11:47:33.150Z,16.27
2023-05-21T11:50:02.223Z,15.87
2023-05-21T11:52:32.886Z,17.23
2023-05-21T11:55:01.579Z,16.80
2023-05-21T11:57:31.701Z,16.53
2023-05-21T12:00:01.283Z,15.60
2023-05-21T12:02:32.781Z,14.53
2023-05-21T12:05:02.458Z,16.27
2023-05-21T12:07:32.092Z,16.40
2023-05-21T12:10:00.867Z,17.90
2023-05-21T12:12:38.553Z,17.27
2023-05-21T12:15:14.943Z,16.53
2023-05-21T12:17:43.238Z,17.07
2023-05-21T12:20:16.705Z,17.43
2023-05-21T12:22:46.518Z,17.43
2023-05-21T12:25:14.869Z,14.77
2023-05-21T12:27:44.988Z,16.67
2023-05-21T12:30:13.414Z,14.97
2023-05-21T12:32:44.387Z,15.60
2023-05-21T12:35:22.353Z,17.30
2023-05-21T12:37:52.085Z,16.50
2023-05-21T12:40:20.628Z,17.50
2023-05-21T12:42:48.948Z,17.03
2023-05-21T12:45:21.073Z,16.90
2023-05-21T12:47:56.170Z,17.87
2023-05-21T12:50:24.848Z,17.77
2023-05-21T12:52:56.920Z,16.67
2023-05-21T12:55:26.056Z,16.80
2023-05-21T12:58:03.358Z,15.17
2023-05-21T13:00:31.672Z,16.57
2023-05-21T13:03:01.112Z,16.40
2023-05-21T13:05:29.446Z,15.70
2023-05-21T13:07:58.996Z,15.57
2023-05-21T13:10:27.221Z,14.90
2023-05-21T13:12:55.449Z,17.43
2023-05-21T13:15:23.656Z,17.13
2023-05-21T13:17:53.682Z,14.93
2023-05-21T13:20:26.346Z,15.93
2023-05-21T13:22:54.890Z,15.90
2023-05-21T13:25:27.448Z,15.37
2023-05-21T13:27:55.902Z,16.33
2023-05-21T13:30:24.173Z,18.60
2023-05-21T13:32:52.570Z,15.77
2023-05-21T13:35:20.991Z,16.83
2023-05-21T13:37:49.427Z,16.63
2023-05-21T13:40:18.030Z,15.70
2023-05-21T13:42:48.316Z,15.87
2023-05-21T13:45:17.115Z,16.17
2023-05-21T13:47:45.829Z,15.50
2023-05-21T13:50:14.220Z,16.03
2023-05-21T13:52:42.742Z,16.60
2023-05-21T13:55:11.721Z,17.47
2023-05-21T13:57:40.656Z,16.80
2023-05-21T14:00:13.991Z,14.73
2023-05-21T14:02:42.892Z,15.77
2023-05-21T14:05:12.264Z,17.30
2023-05-21T14:07:40.931Z,16.80
2023-05-21T14:10:09.765Z,15.00
2023-05-21T14:12:38.476Z,15.00
2023-05-21T14:15:07.584Z,17.10
2023-05-21T14:17:37.232Z,16.50
2023-05-21T14:20:06.256Z,19.37
2023-05-21T14:22:34.491Z,18.37
2023-05-21T14:25:03.219Z,17.83
2023-05-21T14:27:31.423Z,17.10
2023-05-21T14:29:59.643Z,16.77
2023-05-21T14:32:27.939Z,16.50
2023-05-21T14:34:57.687Z,16.13
2023-05-21T14:37:25.870Z,16.80
2023-05-21T14:39:54.132Z,16.43
2023-05-21T14:42:22.779Z,15.60
2023-05-21T14:44:52.350Z,17.33
2023-05-21T14:47:20.879Z,16.53
2023-05-21T14:49:51.400Z,16.03
2023-05-21T14:52:21.469Z,14.13
2023-05-21T14:54:49.733Z,16.73
2023-05-21T14:57:17.945Z,15.80
2023-05-21T14:59:46.319Z,15.93
2023-05-21T15:02:14.696Z,15.07
2023-05-21T15:04:42.985Z,16.60
2023-05-21T15:07:11.238Z,15.57
2023-05-21T15:09:40.809Z,15.27
2023-05-21T15:12:09.238Z,14.87
2023-05-21T15:14:37.469Z,14.63
2023-05-21T15:17:06.050Z,15.00
2023-05-21T15:19:34.314Z,12.67
2023-05-21T15:22:02.698Z,13.67
2023-05-21T15:24:30.869Z,14.07
2023-05-21T15:27:00.440Z,13.97
2023-05-21T15:29:28.897Z,14.37
2023-05-21T15:31:57.129Z,14.67
2023-05-21T15:34:25.799Z,14.00
2023-05-21T15:36:54.088Z,15.00
2023-05-21T15:39:22.288Z,13.93
2023-05-21T15:41:50.492Z,13.60
2023-05-21T15:44:20.061Z,14.33
2023-05-21T15:46:49.780Z,14.80
2023-05-21T15:49:18.099Z,14.93
2023-05-21T15:51:46.807Z,15.87
2023-05-21T15:54:15.048Z,12.57
2023-05-21T15:56:43.523Z,16.40
2023-05-21T15:59:11.754Z,13.57
2023-05-21T16:01:41.316Z,16.30
2023-05-21T16:04:09.764Z,15.03
2023-05-21T16:06:38.229Z,13.93
2023-05-21T16:09:06.465Z,14.57
2023-05-21T16:11:34.766Z,13.87
2023-05-21T16:14:03.417Z,14.50
2023-05-21T16:16:31.728Z,13.57
2023-05-21T16:19:01.369Z,13.93
2023-05-21T16:21:29.672Z,14.57
2023-05-21T16:23:57.874Z,12.40
2023-05-21T16:26:26.073Z,14.23
2023-05-21T16:28:54.296Z,13.73
2023-05-21T16:31:22.566Z,13.50
2023-05-21T16:33:50.808Z,14.37
2023-05-21T16:36:20.402Z,13.93
2023-05-21T16:38:48.613Z,14.43
2023-05-21T16:41:16.885Z,13.63
2023-05-21T16:43:45.102Z,13.40
2023-05-21T16:46:13.370Z,14.70
2023-05-21T16:48:42.691Z,13.17
2023-05-21T16:51:11.003Z,14.73
2023-05-21T16:53:40.558Z,14.17
2023-05-21T16:56:09.277Z,14.23
2023-05-21T16:58:37.543Z,13.87
2023-05-21T17:01:05.897Z,14.00
2023-05-21T17:03:34.256Z,14.40
2023-05-21T17:06:02.574Z,13.63
2023-05-21T17:08:30.854Z,14.97
2023-05-21T17:11:00.573Z,13.90
2023-05-21T17:13:28.824Z,14.97
2023-05-21T17:15:57.115Z,14.27
2023-05-21T17:18:25.337Z,14.73
2023-05-21T17:20:55.818Z,12.53
2023-05-21T17:23:24.055Z,14.37
2023-05-21T17:25:52.736Z,14.80
2023-05-21T17:28:22.304Z,14.77
2023-05-21T17:30:50.540Z,13.93
2023-05-21T17:33:19.149Z,14.47
2023-05-21T17:35:47.407Z,12.20
2023-05-21T17:38:15.612Z,12.60
2023-05-21T17:40:43.799Z,13.00
2023-05-21T17:43:12.009Z,12.97
2023-05-21T17:45:41.814Z,13.07
2023-05-21T17:48:10.097Z,14.37
2023-05-21T17:50:38.356Z,14.23
2023-05-21T17:53:06.578Z,13.97
2023-05-21T17:55:34.890Z,14.13
2023-05-21T17:58:03.133Z,12.60
2023-05-21T18:00:32.109Z,13.53
2023-05-21T18:03:01.921Z,13.13
2023-05-21T18:05:30.163Z,13.67
2023-05-21T18:07:58.380Z,13.77
2023-05-21T18:10:26.598Z,13.80
2023-05-21T18:12:54.794Z,14.30
2023-05-21T18:15:23.111Z,13.90
2023-05-21T18:17:51.381Z,13.57
2023-05-21T18:20:21.068Z,13.87
2023-05-21T18:22:49.289Z,13.70
2023-05-21T18:25:17.548Z,13.53
2023-05-21T18:27:46.106Z,13.20
2023-05-21T18:30:14.744Z,12.37
2023-05-21T18:32:42.954Z,13.03
2023-05-21T18:35:13.703Z,13.30
2023-05-21T18:37:46.604Z,12.57
2023-05-21T18:40:15.104Z,14.23
2023-05-21T18:42:43.326Z,15.43
2023-05-21T18:45:12.996Z,13.70
2023-05-21T18:47:42.926Z,13.70
2023-05-21T18:50:13.200Z,13.57
2023-05-21T18:52:41.443Z,14.27
2023-05-21T18:55:11.545Z,14.03
2023-05-21T18:57:39.986Z,14.30
2023-05-21T19:00:09.472Z,14.40
2023-05-21T19:02:38.045Z,13.60
2023-05-21T19:05:06.726Z,13.13
2023-05-21T19:07:36.101Z,13.60
2023-05-21T19:10:04.490Z,14.87
2023-05-21T19:12:36.050Z,15.23
2023-05-21T19:15:04.313Z,14.33
2023-05-21T19:17:33.433Z,13.97
2023-05-21T19:20:01.694Z,13.73
2023-05-21T19:22:30.280Z,13.30
2023-05-21T19:24:58.966Z,13.70
2023-05-21T19:27:29.013Z,14.73
2023-05-21T19:29:58.674Z,15.90
2023-05-21T19:32:26.903Z,18.53
2023-05-21T19:34:57.328Z,19.10
2023-05-21T19:37:26.120Z,19.67
2023-05-21T19:39:54.322Z,20.17
2023-05-21T19:42:22.537Z,19.73
2023-05-21T19:44:50.782Z,21.13
2023-05-21T19:47:20.426Z,32.03
2023-05-21T19:49:48.633Z,31.73
2023-05-21T19:52:16.861Z,31.93
2023-05-21T19:54:45.098Z,31.63
2023-05-21T19:57:13.386Z,33.20
2023-05-21T19:59:41.670Z,31.00
2023-05-21T20:02:13.178Z,29.70
2023-05-21T20:04:42.763Z,26.93
2023-05-21T20:07:11.006Z,26.10
2023-05-21T20:09:39.828Z,25.37
2023-05-21T20:12:08.458Z,25.50
2023-05-21T20:14:36.836Z,22.90
2023-05-21T20:17:06.300Z,20.53
2023-05-21T20:19:34.824Z,21.80
2023-05-21T20:22:04.520Z,20.37
2023-05-21T20:24:32.802Z,20.13
2023-05-21T20:27:01.932Z,16.83
2023-05-21T20:29:30.439Z,18.13
2023-05-21T20:31:58.634Z,17.80
2023-05-21T20:34:27.318Z,17.37
2023-05-21T20:36:57.978Z,16.73
2023-05-21T20:39:29.514Z,16.83
2023-05-21T20:41:58.190Z,16.17
2023-05-21T20:44:27.545Z,16.60
2023-05-21T20:46:55.830Z,17.43
2023-05-21T20:49:25.860Z,16.93
2023-05-21T20:51:54.137Z,16.50
2023-05-21T20:54:23.240Z,16.87
2023-05-21T20:56:54.730Z,17.97
2023-05-21T20:59:22.937Z,15.50
2023-05-21T21:01:52.565Z,15.30
2023-05-21T21:04:20.891Z,16.13
2023-05-21T21:06:50.274Z,15.90
2023-05-21T21:09:18.977Z,16.30
2023-05-21T21:11:47.170Z,15.57
2023-05-21T21:14:16.741Z,16.70
2023-05-21T21:16:45.030Z,16.30
2023-05-21T21:19:13.267Z,15.93
2023-05-21T21:21:41.506Z,16.77
2023-05-21T21:24:09.893Z,16.20
2023-05-21T21:26:38.142Z,16.33
2023-05-21T21:29:06.446Z,15.93
2023-05-21T21:31:36.061Z,15.77
2023-05-21T21:34:04.357Z,15.67
2023-05-21T21:36:32.685Z,16.50
2023-05-21T21:39:01.133Z,16.73
2023-05-21T21:41:29.323Z,17.50
2023-05-21T21:43:57.519Z,16.03
2023-05-21T21:46:26.057Z,16.27
2023-05-21T21:48:55.687Z,16.07
2023-05-21T21:51:23.892Z,17.23
2023-05-21T21:53:52.083Z,16.87
2023-05-21T21:56:20.745Z,15.87
2023-05-21T21:58:48.951Z,16.33
2023-05-21T22:01:17.237Z,16.93
2023-05-21T22:03:45.678Z,16.17
2023-05-21T22:06:15.250Z,15.83
2023-05-21T22:08:43.497Z,17.60
2023-05-21T22:11:11.871Z,18.30
2023-05-21T22:13:41.660Z,15.80
2023-05-21T22:16:11.710Z,16.97
2023-05-21T22:18:41.844Z,17.27
2023-05-21T22:21:10.841Z,16.43
2023-05-21T22:23:40.624Z,16.90
2023-05-21T22:26:08.929Z,16.17
2023-05-21T22:28:37.143Z,16.07
2023-05-21T22:31:05.674Z,16.33
2023-05-21T22:33:33.900Z,16.43
2023-05-21T22:36:02.209Z,17.60
2023-05-21T22:38:30.552Z,16.00
2023-05-21T22:41:00.169Z,16.90
2023-05-21T22:43:28.440Z,16.83
2023-05-21T22:45:56.861Z,16.67
2023-05-21T22:48:25.077Z,16.73
2023-05-21T22:50:54.744Z,17.43
2023-05-21T22:53:23.507Z,16.93
2023-05-21T22:55:51.770Z,16.70
2023-05-21T22:58:21.357Z,17.00
2023-05-21T23:00:49.596Z,16.60
2023-05-21T23:03:17.950Z,16.60
2023-05-21T23:05:46.387Z,16.00
2023-05-21T23:08:14.812Z,17.23
2023-05-21T23:10:43.164Z,17.43
2023-05-21T23:13:12.767Z,16.13
2023-05-21T23:15:43.484Z,16.87
2023-05-21T23:18:12.454Z,16.97
2023-05-21T23:20:41.662Z,17.00
2023-05-21T23:23:10.865Z,17.10
2023-05-21T23:25:39.264Z,17.53
2023-05-21T23:28:07.557Z,17.53
2023-05-21T23:30:35.896Z,17.40
2023-05-21T23:33:05.683Z,17.57
2023-05-21T23:35:33.913Z,15.93
2023-05-21T23:38:02.119Z,18.93
2023-05-21T23:40:30.302Z,18.17
2023-05-21T23:42:58.549Z,18.37
2023-05-21T23:45:26.812Z,17.40
2023-05-21T23:47:55.116Z,18.80
2023-05-21T23:50:26.098Z,18.47
2023-05-21T23:52:54.322Z,18.53
2023-05-21T23:55:22.557Z,18.90
2023-05-21T23:57:50.900Z,17.37
